Time;durP1;ratioP1;P1;durP2;ratioP2;P2;SDS_P1;SDS_P2;PMS_P1;PMS_P2;Temp;Humidity;BMP_temperature;BMP_pressure;BME280_temperature;BME280_humidity;BME280_pressure;Samples;Min_cycle;Max_cycle;Signal;HPM_P1;HPM_P2
2023/02/14 00:01:47;;;;;;;120.35;90.35;;;;;;;1.15;87.63;100253.19;4979092;28;20459;-73
2023/02/14 00:04:13;;;;;;;140.13;96.50;;;;;;;1.04;88.73;100262.09;4991703;28;20046;-73
2023/02/14 00:06:39;;;;;;;131.30;93.03;;;;;;;1.11;88.55;100265.91;4984698;28;20047;-73
2023/02/14 00:09:06;;;;;;;124.63;92.03;;;;;;;1.15;88.69;100269.94;4985174;28;20568;-73
2023/02/14 00:11:31;;;;;;;117.50;87.53;;;;;;;1.18;87.78;100261.72;4992891;28;20081;-73
2023/02/14 00:16:42;;;;;;;131.18;94.32;;;;;;;1.23;88.99;100259.53;4982449;28;20045;-72
2023/02/14 00:19:08;;;;;;;123.40;93.55;;;;;;;1.22;88.50;100252.53;4985894;28;20027;-73
2023/02/14 00:21:35;;;;;;;118.43;88.63;;;;;;;1.21;88.56;100248.16;4965211;28;20034;-73
2023/02/14 00:24:04;;;;;;;116.32;89.22;;;;;;;1.25;87.96;100246.94;4975401;28;20026;-72
2023/02/14 00:26:30;;;;;;;110.55;88.13;;;;;;;1.22;87.65;100252.53;4971983;28;20061;-72
2023/02/14 00:28:56;;;;;;;124.75;90.43;;;;;;;1.23;88.02;100248.91;4988873;28;20018;-72
2023/02/14 00:31:22;;;;;;;117.70;88.82;;;;;;;1.26;88.01;100253.09;4991290;28;20515;-72
2023/02/14 00:33:47;;;;;;;115.05;92.53;;;;;;;1.28;87.14;100251.97;4992448;28;20022;-72
2023/02/14 00:36:12;;;;;;;100.82;84.80;;;;;;;1.30;87.72;100255.34;4991523;28;20100;-72
2023/02/14 00:38:38;;;;;;;104.43;85.82;;;;;;;1.31;87.60;100256.16;4958174;28;20031;-72
2023/02/14 00:41:03;;;;;;;104.65;81.47;;;;;;;1.34;87.83;100246.13;4991061;28;20198;-71
2023/02/14 00:43:29;;;;;;;104.80;79.93;;;;;;;1.36;86.56;100238.88;4992211;28;20427;-72
2023/02/14 00:45:55;;;;;;;112.85;86.70;;;;;;;1.12;88.01;100256.94;4991045;28;20468;-72
2023/02/14 00:48:21;;;;;;;116.18;85.65;;;;;;;1.17;88.53;100244.13;4974188;28;20058;-73
2023/02/14 00:50:46;;;;;;;91.93;80.45;;;;;;;1.29;87.42;100253.66;4991092;28;20042;-74
2023/02/14 00:53:12;;;;;;;97.40;80.35;;;;;;;1.28;86.56;100251.97;4974741;28;20022;-74
2023/02/14 00:55:37;;;;;;;118.00;83.30;;;;;;;1.00;86.97;100252.72;4974341;28;20045;-74
2023/02/14 00:58:02;;;;;;;107.28;84.10;;;;;;;1.03;87.43;100246.28;4990787;28;20097;-75
2023/02/14 01:00:28;;;;;;;119.07;87.70;;;;;;;1.10;86.55;100242.13;4971497;28;20481;-73
2023/02/14 01:02:54;;;;;;;109.32;84.35;;;;;;;1.06;87.61;100262.78;4987261;28;20110;-73
2023/02/14 01:05:19;;;;;;;101.40;82.72;;;;;;;1.20;87.01;100253.63;4990972;28;20105;-73
2023/02/14 01:07:45;;;;;;;115.00;85.68;;;;;;;1.02;87.79;100255.25;4961373;28;20030;-73
2023/02/14 01:10:10;;;;;;;115.45;83.80;;;;;;;0.98;88.11;100265.25;4990992;28;20042;-73
2023/02/14 01:12:36;;;;;;;112.32;81.75;;;;;;;1.16;87.72;100268.16;4990880;28;20054;-76
2023/02/14 01:15:01;;;;;;;109.43;84.18;;;;;;;1.15;87.71;100277.06;4990855;28;20057;-74
2023/02/14 01:17:27;;;;;;;111.95;84.47;;;;;;;1.15;87.86;100267.31;4958088;28;20022;-74
2023/02/14 01:19:53;;;;;;;100.43;87.03;;;;;;;1.27;87.37;100271.53;4990702;28;20039;-73
2023/02/14 01:22:18;;;;;;;102.15;86.32;;;;;;;1.35;86.51;100263.72;4990602;28;20068;-72
2023/02/14 01:24:43;;;;;;;112.68;85.28;;;;;;;1.30;86.54;100265.97;4974391;28;20045;-72
2023/02/14 01:27:09;;;;;;;106.22;83.35;;;;;;;1.29;86.61;100268.75;4990115;28;20030;-72
2023/02/14 01:29:34;;;;;;;114.88;86.45;;;;;;;1.34;86.79;100262.06;4990774;28;20042;-72
2023/02/14 01:32:00;;;;;;;119.65;84.80;;;;;;;1.34;86.76;100271.84;4990598;28;20027;-72
2023/02/14 01:34:25;;;;;;;114.85;85.88;;;;;;;1.25;87.33;100267.34;4990522;28;20034;-73
2023/02/14 01:36:50;;;;;;;105.80;83.75;;;;;;;1.15;86.61;100267.31;4955186;28;20022;-73
2023/02/14 01:39:18;;;;;;;92.53;81.80;;;;;;;1.01;87.00;100254.41;4981641;28;20030;-73
2023/02/14 01:41:48;;;;;;;105.40;86.95;;;;;;;0.93;87.16;100256.03;4990603;28;20022;-73
2023/02/14 01:44:14;;;;;;;107.57;87.88;;;;;;;1.09;87.23;100257.22;4990702;28;20520;-71
2023/02/14 01:46:41;;;;;;;95.10;84.80;;;;;;;1.21;86.56;100266.75;4990390;28;20041;-73
2023/02/14 01:49:21;;;;;;;111.72;84.80;;;;;;;1.22;86.01;100256.97;4964171;28;20124;-72
2023/02/14 01:52:10;;;;;;;112.03;87.32;;;;;;;1.15;86.76;100259.34;4989563;28;20395;-72
2023/02/14 01:54:40;;;;;;;138.93;93.22;;;;;;;1.18;87.21;100248.47;4974059;28;20538;-74
2023/02/14 01:57:07;;;;;;;126.25;85.60;;;;;;;1.21;87.43;100242.88;4957671;28;20030;-72
2023/02/14 01:59:36;;;;;;;145.10;85.68;;;;;;;1.20;88.21;100251.81;4945628;28;20034;-72
2023/02/14 02:02:01;;;;;;;150.25;92.90;;;;;;;1.19;88.13;100247.47;4980186;28;20049;-74
2023/02/14 02:04:31;;;;;;;164.98;95.03;;;;;;;1.18;87.97;100244.97;4974178;28;20404;-72
2023/02/14 02:07:01;;;;;;;147.73;91.78;;;;;;;1.19;87.83;100242.16;4964514;28;20575;-72
2023/02/14 02:09:50;;;;;;;112.60;82.75;;;;;;;1.19;87.30;100250.13;4958524;28;20027;-73
2023/02/14 02:12:16;;;;;;;117.93;82.93;;;;;;;1.07;87.50;100248.56;4995094;28;20084;-72
2023/02/14 02:14:42;;;;;;;108.55;82.78;;;;;;;1.17;87.21;100240.63;4977594;28;20073;-73
2023/02/14 02:17:10;;;;;;;101.68;79.25;;;;;;;1.14;87.61;100233.78;4980112;28;20391;-73
2023/02/14 02:20:13;;;;;;;95.35;80.93;;;;;;;1.14;87.21;100228.50;4993697;28;20117;-73
2023/02/14 02:22:52;;;;;;;93.20;80.82;;;;;;;1.18;86.29;100229.88;4984332;28;20058;-73
2023/02/14 02:25:56;;;;;;;104.22;81.15;;;;;;;1.12;87.59;100230.41;4993534;28;20038;-74
2023/02/14 02:28:39;;;;;;;105.65;79.28;;;;;;;1.09;87.18;100229.84;4994490;28;20484;-72
2023/02/14 02:31:25;;;;;;;95.57;80.28;;;;;;;1.13;86.36;100229.44;4971364;28;20033;-71
2023/02/14 02:34:03;;;;;;;102.30;80.65;;;;;;;1.13;87.04;100236.56;4977328;28;20127;-73
2023/02/14 02:36:38;;;;;;;104.88;82.20;;;;;;;0.94;87.15;100218.75;4994611;28;20180;-72
2023/02/14 02:39:22;;;;;;;107.43;82.03;;;;;;;1.12;86.92;100240.22;4967368;28;20436;-71
2023/02/14 02:42:22;;;;;;;105.30;78.18;;;;;;;1.13;86.34;100237.41;4993219;28;20274;-72
2023/02/14 02:44:59;;;;;;;106.10;76.10;;;;;;;1.14;87.65;100231.16;4993254;28;20133;-73
2023/02/14 02:47:30;;;;;;;119.22;79.30;;;;;;;1.07;87.13;100224.69;4976483;28;20038;-72
2023/02/14 02:53:13;;;;;;;119.47;76.28;;;;;;;1.12;86.63;100225.09;4979367;28;20116;-72
2023/02/14 02:58:42;;;;;;;122.45;76.53;;;;;;;1.12;86.91;100235.72;4981137;28;20047;-72
2023/02/14 03:01:11;;;;;;;117.00;75.95;;;;;;;1.12;87.06;100241.03;4976374;28;20496;-71
2023/02/14 03:06:21;;;;;;;137.50;80.90;;;;;;;1.11;87.10;100239.38;4974423;28;20043;-72
2023/02/14 03:08:46;;;;;;;130.85;80.30;;;;;;;1.09;87.34;100238.66;4983346;28;20030;-72
2023/02/14 03:11:13;;;;;;;111.97;76.00;;;;;;;1.09;87.65;100246.63;4992553;28;20377;-71
2023/02/14 03:13:48;;;;;;;126.25;77.10;;;;;;;1.06;87.20;100246.88;4976532;28;20022;-72
2023/02/14 03:16:13;;;;;;;175.57;82.60;;;;;;;1.07;87.54;100243.25;4976368;28;20188;-72
2023/02/14 03:21:54;;;;;;;177.73;80.73;;;;;;;0.98;88.00;100248.53;4992471;28;20053;-71
2023/02/14 03:24:46;;;;;;;136.02;78.65;;;;;;;1.11;87.61;100252.63;4976225;28;20297;-72
2023/02/14 03:27:21;;;;;;;131.68;77.13;;;;;;;1.16;87.62;100253.06;4975423;28;20515;-72
2023/02/14 03:30:11;;;;;;;156.40;82.70;;;;;;;1.09;87.62;100262.53;4976296;28;20038;-72
2023/02/14 03:32:49;;;;;;;205.15;87.97;;;;;;;1.09;87.50;100262.53;4976104;28;20563;-72
2023/02/14 03:35:24;;;;;;;150.68;82.43;;;;;;;1.03;87.14;100260.41;4975803;28;20070;-72
2023/02/14 03:37:58;;;;;;;242.25;90.18;;;;;;;0.95;87.71;100257.59;4975639;28;20038;-72
2023/02/14 03:40:27;;;;;;;299.15;92.72;;;;;;;1.04;87.84;100264.75;4975897;28;20552;-72
2023/02/14 03:42:59;;;;;;;275.88;91.75;;;;;;;0.93;88.00;100256.88;4975970;28;20502;-72
2023/02/14 03:45:29;;;;;;;193.63;83.72;;;;;;;0.97;87.74;100258.28;4975825;28;20042;-73
2023/02/14 03:47:59;;;;;;;178.02;82.72;;;;;;;0.91;88.11;100258.00;4991321;28;20022;-72
2023/02/14 03:50:24;;;;;;;145.13;78.05;;;;;;;0.97;88.11;100254.78;4993145;28;20447;-72
2023/02/14 03:52:51;;;;;;;147.77;77.55;;;;;;;0.89;87.45;100266.06;4975060;28;20118;-73
2023/02/14 03:55:27;;;;;;;171.70;82.05;;;;;;;1.00;87.83;100257.19;4979883;28;20104;-73
2023/02/14 03:57:57;;;;;;;138.15;74.78;;;;;;;1.03;87.03;100255.09;4975168;28;20042;-72
2023/02/14 04:00:22;;;;;;;137.73;75.97;;;;;;;0.94;88.07;100253.25;4953420;28;20043;-72
2023/02/14 04:02:52;;;;;;;143.40;76.50;;;;;;;0.95;88.10;100240.84;4983164;28;20495;-72
2023/02/14 04:05:21;;;;;;;109.35;74.05;;;;;;;1.11;87.54;100260.59;4995917;28;20038;-72
2023/02/14 04:07:49;;;;;;;124.15;73.47;;;;;;;1.04;87.18;100264.75;5011664;28;20593;-72
2023/02/14 04:10:15;;;;;;;117.30;77.20;;;;;;;1.05;87.52;100260.28;5007827;28;20062;-73
2023/02/14 04:12:41;;;;;;;141.38;79.35;;;;;;;0.93;87.72;100254.25;4972163;28;20050;-73
2023/02/14 04:15:07;;;;;;;123.82;75.80;;;;;;;0.90;87.46;100270.41;5000047;28;20066;-74
2023/02/14 04:20:16;;;;;;;209.93;86.20;;;;;;;0.98;86.96;100257.31;4981024;28;20030;-72
2023/02/14 04:22:42;;;;;;;137.45;78.78;;;;;;;0.99;87.11;100261.66;4973175;28;20073;-73
2023/02/14 04:25:07;;;;;;;120.63;73.65;;;;;;;1.06;87.04;100261.94;4958954;28;20075;-73
2023/02/14 04:27:32;;;;;;;118.40;73.68;;;;;;;1.09;86.85;100254.56;4973115;28;20560;-72
2023/02/14 04:29:58;;;;;;;134.35;75.30;;;;;;;0.93;87.47;100256.88;4984425;28;20121;-73
2023/02/14 04:32:23;;;;;;;175.70;79.93;;;;;;;0.89;87.86;100259.94;4975029;28;20053;-74
2023/02/14 04:34:49;;;;;;;230.43;86.22;;;;;;;0.79;88.33;100238.69;4974962;28;20228;-75
2023/02/14 04:37:15;;;;;;;240.88;88.07;;;;;;;0.94;88.81;100244.44;4974670;28;20026;-72
2023/02/14 04:39:41;;;;;;;192.98;82.93;;;;;;;0.96;88.15;100248.63;4991449;28;20534;-72
2023/02/14 04:42:07;;;;;;;177.38;77.30;;;;;;;0.96;87.93;100238.03;4991341;28;20030;-73
2023/02/14 04:44:37;;;;;;;168.60;77.35;;;;;;;0.96;88.49;100230.06;4991194;28;20043;-73
2023/02/14 04:47:03;;;;;;;187.13;79.22;;;;;;;1.00;87.13;100242.13;4991862;28;20041;-72
2023/02/14 04:49:28;;;;;;;155.93;76.50;;;;;;;0.98;88.27;100238.72;4991185;28;20029;-72
2023/02/14 04:51:53;;;;;;;132.10;77.85;;;;;;;0.90;88.27;100235.94;4961918;28;20558;-72
2023/02/14 04:54:19;;;;;;;154.57;80.32;;;;;;;0.86;88.07;100223.91;4991273;28;20026;-72
2023/02/14 04:56:44;;;;;;;113.88;77.55;;;;;;;0.90;88.29;100214.72;4958711;28;20034;-71
2023/02/14 04:59:10;;;;;;;175.65;80.95;;;;;;;0.94;87.75;100218.75;4964913;28;20066;-74
2023/02/14 05:01:35;;;;;;;149.20;80.05;;;;;;;0.96;87.33;100229.22;4977063;28;20481;-71
2023/02/14 05:04:01;;;;;;;163.00;81.07;;;;;;;0.93;87.36;100233.03;4991122;28;20081;-72
2023/02/14 05:06:27;;;;;;;135.38;77.95;;;;;;;0.92;87.84;100223.38;4990941;28;20038;-71
2023/02/14 05:08:53;;;;;;;117.13;72.50;;;;;;;0.95;88.04;100228.41;4990507;28;20022;-71
2023/02/14 05:11:19;;;;;;;124.10;75.07;;;;;;;0.96;86.69;100224.78;4979300;28;20484;-71
2023/02/14 05:13:44;;;;;;;114.18;74.05;;;;;;;0.97;87.26;100228.28;4978997;28;20046;-72
2023/02/14 05:16:10;;;;;;;101.57;69.45;;;;;;;0.97;87.81;100221.16;4973507;28;20125;-70
2023/02/14 05:18:35;;;;;;;108.60;68.07;;;;;;;0.93;87.22;100225.06;4974217;28;20065;-71
2023/02/14 05:21:00;;;;;;;142.90;71.88;;;;;;;0.89;87.98;100218.31;4974599;28;20038;-71
2023/02/14 05:23:26;;;;;;;96.97;68.82;;;;;;;0.87;87.83;100219.44;4990717;28;20022;-72
2023/02/14 05:25:51;;;;;;;150.27;74.50;;;;;;;0.80;87.50;100211.16;4990745;28;20129;-73
2023/02/14 05:28:18;;;;;;;129.98;72.22;;;;;;;0.89;88.02;100223.63;4990272;28;20023;-74
2023/02/14 05:30:43;;;;;;;124.40;71.25;;;;;;;0.81;87.92;100215.50;4990837;28;20075;-73
2023/02/14 05:33:09;;;;;;;104.05;67.82;;;;;;;0.84;88.14;100214.41;4958571;28;20054;-74
2023/02/14 05:35:34;;;;;;;126.22;66.28;;;;;;;0.90;87.16;100212.06;4991742;28;20034;-75
2023/02/14 05:37:59;;;;;;;127.18;69.40;;;;;;;0.90;87.36;100214.72;4990135;28;20033;-76
2023/02/14 05:40:25;;;;;;;135.00;70.65;;;;;;;0.86;87.28;100212.47;4990671;28;20034;-76
2023/02/14 05:42:51;;;;;;;96.60;66.80;;;;;;;0.95;88.07;100217.81;4992923;28;20033;-72
2023/02/14 05:45:17;;;;;;;137.05;73.90;;;;;;;0.89;87.13;100207.72;4994230;28;20066;-71
2023/02/14 05:47:42;;;;;;;434.70;96.47;;;;;;;0.44;88.60;100206.41;4993791;28;20049;-74
2023/02/14 05:50:08;;;;;;;127.70;69.72;;;;;;;0.55;89.23;100201.00;4995496;28;20037;-74
2023/02/14 05:52:36;;;;;;;187.23;72.13;;;;;;;0.62;88.11;100204.81;4977929;28;20526;-74
2023/02/14 05:55:02;;;;;;;124.88;69.00;;;;;;;0.67;88.16;100202.59;4994260;28;20042;-74
2023/02/14 05:57:27;;;;;;;282.30;90.22;;;;;;;0.49;88.34;100212.16;4961361;28;20022;-74
2023/02/14 05:59:53;;;;;;;328.05;83.05;;;;;;;0.23;90.26;100217.00;4962430;28;20193;-73
2023/02/14 06:02:18;;;;;;;212.80;74.38;;;;;;;0.40;89.87;100212.91;4958559;28;20469;-72
2023/02/14 06:04:43;;;;;;;185.20;78.28;;;;;;;0.57;89.33;100207.00;4974227;28;20047;-72
2023/02/14 06:07:09;;;;;;;136.93;70.13;;;;;;;0.71;88.59;100214.63;4991953;28;20022;-72
2023/02/14 06:09:34;;;;;;;129.02;67.03;;;;;;;0.70;88.21;100205.00;4993962;28;20045;-72
2023/02/14 06:12:00;;;;;;;157.52;66.70;;;;;;;0.64;87.58;100202.88;4994711;28;20486;-72
2023/02/14 06:14:25;;;;;;;154.25;70.18;;;;;;;0.55;88.25;100203.66;4993881;28;20034;-72
2023/02/14 06:16:50;;;;;;;114.72;64.40;;;;;;;0.64;88.25;100214.31;4993515;28;20026;-73
2023/02/14 06:19:16;;;;;;;268.77;95.50;;;;;;;0.40;88.79;100215.56;4993755;28;20092;-74
2023/02/14 06:21:41;;;;;;;128.13;67.30;;;;;;;0.10;89.44;100207.53;4993785;28;20049;-73
2023/02/14 06:24:07;;;;;;;129.27;90.93;;;;;;;0.45;88.39;100213.34;4995047;28;20038;-73
2023/02/14 06:26:34;;;;;;;97.07;67.05;;;;;;;0.48;87.68;100213.09;4994867;28;20073;-73
2023/02/14 06:29:01;;;;;;;94.28;62.90;;;;;;;0.60;87.07;100212.06;4993114;28;20045;-73
2023/02/14 06:31:26;;;;;;;283.83;78.18;;;;;;;0.24;88.94;100205.44;4993342;28;20105;-72
2023/02/14 06:33:52;;;;;;;123.10;65.25;;;;;;;0.49;88.55;100210.31;4993514;28;20109;-72
2023/02/14 06:36:18;;;;;;;107.82;63.90;;;;;;;0.33;88.89;100215.25;4994018;28;20096;-72
2023/02/14 06:38:43;;;;;;;103.88;64.43;;;;;;;0.55;88.29;100214.25;4992628;28;20050;-73
2023/02/14 06:41:10;;;;;;;109.07;67.60;;;;;;;0.53;87.82;100221.50;4994513;28;20023;-73
2023/02/14 06:43:35;;;;;;;76.63;64.38;;;;;;;0.53;86.81;100211.75;4993296;28;20037;-73
2023/02/14 06:46:01;;;;;;;78.43;65.85;;;;;;;0.61;86.59;100222.53;4977023;28;20140;-73
2023/02/14 06:48:26;;;;;;;75.40;63.10;;;;;;;0.54;86.88;100221.38;4992667;28;20031;-74
2023/02/14 06:50:52;;;;;;;73.40;63.50;;;;;;;0.62;86.40;100226.88;4993168;28;20469;-73
2023/02/14 06:53:18;;;;;;;72.32;64.55;;;;;;;0.38;86.48;100234.25;4992628;28;20117;-73
2023/02/14 06:55:44;;;;;;;81.57;62.50;;;;;;;0.07;87.57;100219.25;4976790;28;20049;-73
2023/02/14 06:58:09;;;;;;;77.93;64.65;;;;;;;0.18;87.45;100229.78;4990973;28;20042;-74
2023/02/14 07:00:34;;;;;;;87.38;66.22;;;;;;;0.12;87.47;100210.94;4973695;28;20074;-74
2023/02/14 07:03:00;;;;;;;69.65;62.45;;;;;;;0.24;88.17;100236.38;4990141;28;20034;-74
2023/02/14 07:05:25;;;;;;;68.28;61.40;;;;;;;0.35;86.55;100228.38;4976740;28;20030;-74
2023/02/14 07:07:51;;;;;;;72.95;62.22;;;;;;;0.24;87.13;100225.78;4992189;28;20514;-73
2023/02/14 07:10:17;;;;;;;74.00;63.03;;;;;;;0.14;87.17;100233.66;4976676;28;20026;-74
2023/02/14 07:12:42;;;;;;;71.95;64.32;;;;;;;0.23;86.96;100227.59;4992743;28;20092;-74
2023/02/14 07:15:10;;;;;;;75.05;67.55;;;;;;;0.48;86.75;100229.00;4976720;28;20428;-74
2023/02/14 07:17:36;;;;;;;82.97;65.15;;;;;;;0.51;86.08;100224.28;4975741;28;20088;-73
2023/02/14 07:20:02;;;;;;;90.63;64.68;;;;;;;0.25;87.00;100227.47;4992713;28;20022;-74
2023/02/14 07:22:27;;;;;;;90.68;64.35;;;;;;;0.29;87.21;100223.59;4976332;28;20030;-74
2023/02/14 07:24:53;;;;;;;87.25;62.88;;;;;;;0.11;87.58;100222.47;4976370;28;20623;-73
2023/02/14 07:27:18;;;;;;;86.22;67.25;;;;;;;-0.08;89.03;100231.97;4992005;28;20038;-74
2023/02/14 07:29:44;;;;;;;115.07;68.43;;;;;;;0.29;87.23;100223.59;4992469;28;20030;-74
2023/02/14 07:32:09;;;;;;;76.93;64.88;;;;;;;0.45;87.34;100224.81;4976430;28;20202;-74
2023/02/14 07:34:34;;;;;;;172.73;72.15;;;;;;;0.28;86.34;100224.56;4975955;28;20076;-73
2023/02/14 07:37:00;;;;;;;264.75;76.57;;;;;;;-0.03;87.57;100229.78;4981517;28;20408;-74
2023/02/14 07:39:26;;;;;;;215.38;74.95;;;;;;;-0.17;88.38;100227.44;4975635;28;20025;-73
2023/02/14 07:41:51;;;;;;;126.00;68.60;;;;;;;-0.08;89.13;100231.97;4975481;28;20208;-73
2023/02/14 07:44:18;;;;;;;77.47;63.42;;;;;;;0.34;87.33;100226.69;4975640;28;20053;-74
2023/02/14 07:46:43;;;;;;;133.18;67.30;;;;;;;0.36;86.51;100227.38;4975287;28;20038;-73
2023/02/14 07:49:09;;;;;;;122.63;66.68;;;;;;;0.33;86.80;100230.28;4975020;28;20022;-73
2023/02/14 07:51:35;;;;;;;119.30;67.53;;;;;;;0.25;87.50;100222.16;4990422;28;20181;-73
2023/02/14 07:54:00;;;;;;;78.82;63.28;;;;;;;0.54;85.97;100228.47;4991798;28;20023;-72
2023/02/14 07:56:25;;;;;;;197.48;80.18;;;;;;;0.05;87.58;100215.88;4975198;28;20119;-73
2023/02/14 07:58:51;;;;;;;116.65;66.70;;;;;;;0.22;87.46;100225.06;4983778;28;20477;-73
2023/02/14 08:01:16;;;;;;;169.65;76.97;;;;;;;0.02;88.12;100212.66;4945891;28;20037;-73
2023/02/14 08:03:48;;;;;;;171.45;81.78;;;;;;;0.03;88.41;100216.97;4992626;28;20022;-73
2023/02/14 08:06:16;;;;;;;225.23;95.95;;;;;;;-0.33;89.22;100215.59;4990509;28;20044;-73
2023/02/14 08:08:42;;;;;;;167.95;81.13;;;;;;;-0.27;90.21;100218.56;4990445;28;20392;-73
2023/02/14 08:11:07;;;;;;;146.82;74.05;;;;;;;-0.11;89.13;100221.63;4991273;28;20034;-73
2023/02/14 08:13:32;;;;;;;72.28;64.43;;;;;;;0.07;88.67;100202.53;4992533;28;20070;-73
2023/02/14 08:16:04;;;;;;;77.68;69.15;;;;;;;0.24;88.09;100204.59;4991231;28;20663;-73
2023/02/14 08:18:31;;;;;;;82.63;67.25;;;;;;;0.09;88.10;100208.53;4975565;28;20526;-72
2023/02/14 08:20:57;;;;;;;84.15;68.30;;;;;;;0.15;87.72;100205.34;4991477;28;20022;-74
2023/02/14 08:23:22;;;;;;;76.65;68.55;;;;;;;0.47;87.74;100206.13;4975394;28;20564;-73
2023/02/14 08:25:48;;;;;;;67.90;60.67;;;;;;;0.64;86.81;100208.16;4992625;28;20045;-76
2023/02/14 08:28:14;;;;;;;129.35;73.30;;;;;;;0.56;86.30;100200.06;4990874;28;20072;-73
2023/02/14 08:30:41;;;;;;;138.68;72.40;;;;;;;-0.01;88.29;100206.66;4992659;28;20061;-74
2023/02/14 08:33:06;;;;;;;102.40;66.95;;;;;;;0.14;88.54;100215.09;4975306;28;20037;-74
2023/02/14 08:35:32;;;;;;;67.53;60.47;;;;;;;0.40;87.73;100215.56;4992265;28;20547;-73
2023/02/14 08:37:57;;;;;;;65.35;59.30;;;;;;;0.53;87.79;100210.91;4990902;28;20048;-73
2023/02/14 08:40:23;;;;;;;65.53;59.85;;;;;;;0.87;86.35;100212.31;4959057;28;20034;-74
2023/02/14 08:42:48;;;;;;;68.72;61.60;;;;;;;0.84;85.26;100214.41;4991193;28;20117;-74
2023/02/14 08:45:13;;;;;;;82.78;64.93;;;;;;;0.55;85.94;100214.25;4974987;28;20476;-74
2023/02/14 08:47:39;;;;;;;69.43;63.08;;;;;;;0.61;86.14;100208.41;4990620;28;20038;-74
2023/02/14 08:50:09;;;;;;;74.03;66.20;;;;;;;0.75;85.54;100207.25;4991259;28;20030;-74
2023/02/14 08:52:34;;;;;;;71.95;65.28;;;;;;;1.03;85.39;100203.84;4991214;28;20114;-74
2023/02/14 08:55:01;;;;;;;69.78;63.50;;;;;;;1.00;84.35;100197.03;4991138;28;20467;-74
2023/02/14 08:57:26;;;;;;;66.65;60.50;;;;;;;1.03;84.69;100204.69;4974635;28;20034;-74
2023/02/14 08:59:52;;;;;;;64.75;59.13;;;;;;;1.07;85.43;100200.81;4959593;28;20416;-74
2023/02/14 09:02:18;;;;;;;66.18;60.42;;;;;;;1.12;85.09;100209.19;4982615;28;20038;-73
2023/02/14 09:04:43;;;;;;;62.85;57.58;;;;;;;1.27;84.76;100202.53;4991108;28;20033;-74
2023/02/14 09:07:10;;;;;;;61.88;56.42;;;;;;;1.14;85.00;100201.13;4979576;28;20062;-74
2023/02/14 09:09:36;;;;;;;63.50;58.15;;;;;;;1.36;84.46;100199.06;4972899;28;20098;-73
2023/02/14 09:12:05;;;;;;;66.70;59.88;;;;;;;1.31;84.44;100198.63;4982825;28;20137;-74
2023/02/14 09:14:35;;;;;;;61.65;56.42;;;;;;;1.37;85.12;100208.72;4974698;28;20046;-74
2023/02/14 09:17:04;;;;;;;66.10;58.90;;;;;;;1.29;83.55;100205.03;4963103;28;20038;-74
2023/02/14 09:19:33;;;;;;;62.88;57.17;;;;;;;1.36;84.55;100195.56;4994513;28;20026;-74
2023/02/14 09:21:58;;;;;;;62.05;56.15;;;;;;;1.46;84.12;100206.19;4962564;28;20400;-74
2023/02/14 09:24:24;;;;;;;63.53;58.03;;;;;;;1.55;84.52;100205.38;4994780;28;20029;-74
2023/02/14 09:26:49;;;;;;;62.15;56.97;;;;;;;1.61;84.27;100204.84;4994179;28;20038;-74
2023/02/14 09:29:15;;;;;;;64.25;58.40;;;;;;;1.64;83.28;100193.91;4994547;28;20057;-74
2023/02/14 09:31:40;;;;;;;70.57;60.35;;;;;;;1.17;84.48;100175.13;4994794;28;20053;-74
2023/02/14 09:34:06;;;;;;;60.45;54.90;;;;;;;1.52;84.18;100189.75;4978500;28;20022;-74
2023/02/14 09:36:31;;;;;;;65.38;59.65;;;;;;;1.53;84.27;100191.41;4994408;28;20046;-74
2023/02/14 09:38:57;;;;;;;65.47;59.67;;;;;;;1.51;83.87;100193.34;4971801;28;20025;-74
2023/02/14 09:41:28;;;;;;;63.65;58.22;;;;;;;1.73;83.59;100198.38;4987424;28;20073;-74
2023/02/14 09:43:59;;;;;;;66.60;60.40;;;;;;;1.28;83.70;100195.44;4969798;28;20137;-74
2023/02/14 09:46:25;;;;;;;64.40;58.90;;;;;;;1.51;84.41;100188.06;4994418;28;20443;-73
2023/02/14 09:48:52;;;;;;;60.17;55.40;;;;;;;1.70;83.00;100188.91;4961298;28;20503;-74
2023/02/14 09:51:20;;;;;;;65.60;59.20;;;;;;;1.42;83.58;100187.88;4981112;28;20031;-73
2023/02/14 09:53:51;;;;;;;62.45;56.85;;;;;;;1.56;83.95;100196.44;4978177;28;20057;-73
2023/02/14 09:56:20;;;;;;;65.68;59.67;;;;;;;1.35;84.95;100189.41;4981106;28;20042;-74
2023/02/14 09:58:53;;;;;;;61.53;56.42;;;;;;;1.53;83.65;100183.44;4983974;28;20035;-73
2023/02/14 10:01:26;;;;;;;60.63;55.65;;;;;;;1.51;82.88;100194.22;4971607;28;20039;-73
2023/02/14 10:04:07;;;;;;;65.20;58.70;;;;;;;1.24;84.59;100188.69;4968874;28;20041;-73
2023/02/14 10:06:46;;;;;;;59.58;54.78;;;;;;;1.65;83.45;100192.97;4984884;28;20051;-73
2023/02/14 10:09:21;;;;;;;62.35;57.65;;;;;;;1.68;83.27;100200.66;4960048;28;20026;-73
2023/02/14 10:11:47;;;;;;;59.35;54.70;;;;;;;1.62;82.97;100190.56;4964894;28;20069;-73
2023/02/14 10:14:18;;;;;;;63.45;58.00;;;;;;;1.47;83.17;100191.97;4977308;28;20041;-73
2023/02/14 10:16:54;;;;;;;65.15;59.33;;;;;;;1.58;84.14;100194.47;4984185;28;20480;-73
2023/02/14 10:19:21;;;;;;;62.13;57.20;;;;;;;1.61;84.00;100195.03;4985046;28;20058;-74
2023/02/14 10:21:59;;;;;;;61.08;56.08;;;;;;;1.96;82.98;100202.47;4957602;28;20038;-73
2023/02/14 10:24:36;;;;;;;63.38;57.47;;;;;;;1.22;84.63;100196.78;4980021;28;20041;-74
2023/02/14 10:27:08;;;;;;;59.67;54.65;;;;;;;1.55;83.86;100200.91;4993138;28;20038;-74
2023/02/14 10:29:34;;;;;;;61.55;56.55;;;;;;;1.49;83.65;100195.31;4992661;28;20038;-74
2023/02/14 10:32:03;;;;;;;62.83;57.83;;;;;;;1.75;82.90;100191.16;4965119;28;20433;-73
2023/02/14 10:34:47;;;;;;;63.42;58.25;;;;;;;1.82;83.10;100193.09;4993340;28;20073;-73
2023/02/14 10:37:31;;;;;;;63.15;57.92;;;;;;;1.89;83.40;100188.06;4988096;28;20085;-74
2023/02/14 10:40:34;;;;;;;60.42;55.70;;;;;;;2.00;81.48;100179.94;4989039;28;20039;-74
2023/02/14 10:43:21;;;;;;;59.97;55.13;;;;;;;1.49;83.83;100179.38;4993397;28;20034;-73
2023/02/14 10:46:29;;;;;;;59.35;54.30;;;;;;;1.33;84.03;100182.59;4972316;28;20126;-73
2023/02/14 10:49:03;;;;;;;58.33;53.83;;;;;;;1.67;84.09;100172.41;4988284;28;20046;-73
2023/02/14 10:51:41;;;;;;;57.50;52.97;;;;;;;1.73;82.83;100177.16;4991148;28;20042;-74
2023/02/14 10:54:18;;;;;;;54.95;50.60;;;;;;;2.03;81.57;100174.38;4967872;28;20026;-73
2023/02/14 10:56:53;;;;;;;53.08;48.00;;;;;;;0.85;83.70;100158.56;4960571;28;20040;-73
2023/02/14 10:59:30;;;;;;;54.05;49.75;;;;;;;0.98;85.01;100169.78;4974827;28;20038;-72
2023/02/14 11:01:57;;;;;;;54.85;50.85;;;;;;;1.51;82.00;100169.47;4974365;28;20117;-73
2023/02/14 11:04:24;;;;;;;56.38;51.75;;;;;;;1.67;80.78;100169.75;4986588;28;20476;-73
2023/02/14 11:06:49;;;;;;;57.75;53.55;;;;;;;1.65;82.69;100174.38;4992703;28;20057;-74
2023/02/14 11:09:16;;;;;;;59.58;54.97;;;;;;;1.60;83.43;100165.97;4992608;28;20027;-73
2023/02/14 11:11:48;;;;;;;56.35;52.05;;;;;;;1.67;83.12;100173.25;4981979;28;20085;-73
2023/02/14 11:14:35;;;;;;;56.28;51.90;;;;;;;1.68;82.80;100158.16;4994018;28;20034;-73
2023/02/14 11:17:27;;;;;;;55.22;50.85;;;;;;;1.24;82.44;100159.50;4984498;28;20046;-72
2023/02/14 11:20:01;;;;;;;53.00;48.60;;;;;;;1.32;83.32;100165.81;4976429;28;20042;-73
2023/02/14 11:22:32;;;;;;;56.38;51.83;;;;;;;1.29;83.43;100166.09;4992541;28;20038;-72
2023/02/14 11:25:02;;;;;;;56.50;52.10;;;;;;;1.29;82.88;100158.13;4992712;28;20042;-73
2023/02/14 11:27:28;;;;;;;56.10;51.78;;;;;;;1.26;83.97;100154.94;4975687;28;20030;-74
2023/02/14 11:29:53;;;;;;;59.28;54.55;;;;;;;1.20;85.08;100158.94;4976413;28;20113;-72
2023/02/14 11:32:23;;;;;;;56.33;51.83;;;;;;;1.05;84.34;100164.78;4976060;28;20093;-73
2023/02/14 11:34:56;;;;;;;59.10;54.40;;;;;;;1.07;85.31;100153.06;4993589;28;20038;-72
2023/02/14 11:37:22;;;;;;;63.10;58.22;;;;;;;1.22;85.37;100151.69;4991950;28;20070;-72